sensor_id;sensor_type;location;lat;lon;timestamp;P1;durP1;ratioP1;P2;durP2;ratioP2
22064;SDS011;11197;53.110;8.468;2022-08-19T00:00:33;7.80;;;5.32;;
22064;SDS011;11197;53.110;8.468;2022-08-19T00:03:01;5.90;;;4.50;;
22064;SDS011;11197;53.110;8.468;2022-08-19T00:05:28;6.82;;;5.28;;
22064;SDS011;11197;53.110;8.468;2022-08-19T00:07:54;8.25;;;5.28;;
22064;SDS011;11197;53.110;8.468;2022-08-19T00:10:20;8.02;;;6.07;;
22064;SDS011;11197;53.110;8.468;2022-08-19T00:12:46;9.13;;;6.45;;
22064;SDS011;11197;53.110;8.468;2022-08-19T00:15:13;9.73;;;7.50;;
22064;SDS011;11197;53.110;8.468;2022-08-19T00:17:42;11.10;;;7.35;;
22064;SDS011;11197;53.110;8.468;2022-08-19T00:20:16;10.38;;;7.35;;
22064;SDS011;11197;53.110;8.468;2022-08-19T00:22:45;8.32;;;5.80;;
22064;SDS011;11197;53.110;8.468;2022-08-19T00:25:14;6.75;;;4.93;;
22064;SDS011;11197;53.110;8.468;2022-08-19T00:27:41;9.88;;;6.90;;
22064;SDS011;11197;53.110;8.468;2022-08-19T00:30:07;8.68;;;6.20;;
22064;SDS011;11197;53.110;8.468;2022-08-19T00:32:35;10.05;;;7.22;;
22064;SDS011;11197;53.110;8.468;2022-08-19T00:35:02;10.30;;;7.07;;
22064;SDS011;11197;53.110;8.468;2022-08-19T00:37:28;11.82;;;7.20;;
22064;SDS011;11197;53.110;8.468;2022-08-19T00:39:54;7.43;;;5.45;;
22064;SDS011;11197;53.110;8.468;2022-08-19T00:42:20;10.82;;;7.55;;
22064;SDS011;11197;53.110;8.468;2022-08-19T00:44:47;8.82;;;6.40;;
22064;SDS011;11197;53.110;8.468;2022-08-19T00:47:14;11.07;;;7.35;;
22064;SDS011;11197;53.110;8.468;2022-08-19T00:52:15;11.82;;;8.23;;
22064;SDS011;11197;53.110;8.468;2022-08-19T00:54:46;8.52;;;6.45;;
22064;SDS011;11197;53.110;8.468;2022-08-19T00:57:15;9.63;;;7.32;;
22064;SDS011;11197;53.110;8.468;2022-08-19T00:59:44;11.55;;;8.77;;
22064;SDS011;11197;53.110;8.468;2022-08-19T01:02:14;11.07;;;8.20;;
22064;SDS011;11197;53.110;8.468;2022-08-19T01:04:40;10.30;;;7.75;;
22064;SDS011;11197;53.110;8.468;2022-08-19T01:07:06;10.95;;;9.75;;
22064;SDS011;11197;53.110;8.468;2022-08-19T01:09:33;10.95;;;6.82;;
22064;SDS011;11197;53.110;8.468;2022-08-19T01:11:59;11.38;;;8.63;;
22064;SDS011;11197;53.110;8.468;2022-08-19T01:14:25;9.68;;;7.30;;
22064;SDS011;11197;53.110;8.468;2022-08-19T01:16:51;8.70;;;7.57;;
22064;SDS011;11197;53.110;8.468;2022-08-19T01:19:26;10.38;;;7.53;;
22064;SDS011;11197;53.110;8.468;2022-08-19T01:22:00;12.43;;;9.70;;
22064;SDS011;11197;53.110;8.468;2022-08-19T01:24:43;13.77;;;10.43;;
22064;SDS011;11197;53.110;8.468;2022-08-19T01:27:09;11.55;;;8.95;;
22064;SDS011;11197;53.110;8.468;2022-08-19T01:29:37;15.10;;;10.90;;
22064;SDS011;11197;53.110;8.468;2022-08-19T01:32:06;12.77;;;9.48;;
22064;SDS011;11197;53.110;8.468;2022-08-19T01:34:33;13.57;;;11.23;;
22064;SDS011;11197;53.110;8.468;2022-08-19T01:37:00;10.52;;;8.13;;
22064;SDS011;11197;53.110;8.468;2022-08-19T01:39:33;12.43;;;9.48;;
22064;SDS011;11197;53.110;8.468;2022-08-19T01:41:59;8.75;;;7.45;;
22064;SDS011;11197;53.110;8.468;2022-08-19T01:44:29;14.52;;;10.57;;
22064;SDS011;11197;53.110;8.468;2022-08-19T01:46:55;13.70;;;9.73;;
22064;SDS011;11197;53.110;8.468;2022-08-19T01:49:23;10.98;;;8.88;;
22064;SDS011;11197;53.110;8.468;2022-08-19T01:51:52;10.15;;;8.10;;
22064;SDS011;11197;53.110;8.468;2022-08-19T01:54:19;12.95;;;10.88;;
22064;SDS011;11197;53.110;8.468;2022-08-19T01:56:46;11.88;;;9.40;;
22064;SDS011;11197;53.110;8.468;2022-08-19T01:59:14;11.77;;;8.23;;
22064;SDS011;11197;53.110;8.468;2022-08-19T02:01:44;11.00;;;7.95;;
22064;SDS011;11197;53.110;8.468;2022-08-19T02:04:10;10.52;;;8.55;;
22064;SDS011;11197;53.110;8.468;2022-08-19T02:06:36;11.13;;;9.73;;
22064;SDS011;11197;53.110;8.468;2022-08-19T02:09:03;12.40;;;9.23;;
22064;SDS011;11197;53.110;8.468;2022-08-19T02:11:34;10.77;;;9.30;;
22064;SDS011;11197;53.110;8.468;2022-08-19T02:14:02;10.93;;;8.80;;
22064;SDS011;11197;53.110;8.468;2022-08-19T02:16:31;11.07;;;8.55;;
22064;SDS011;11197;53.110;8.468;2022-08-19T02:18:57;10.48;;;9.20;;
22064;SDS011;11197;53.110;8.468;2022-08-19T02:21:27;12.00;;;10.02;;
22064;SDS011;11197;53.110;8.468;2022-08-19T02:23:54;13.50;;;9.65;;
22064;SDS011;11197;53.110;8.468;2022-08-19T02:26:20;12.68;;;9.80;;
22064;SDS011;11197;53.110;8.468;2022-08-19T02:28:46;11.68;;;10.13;;
22064;SDS011;11197;53.110;8.468;2022-08-19T02:31:14;11.43;;;8.75;;
22064;SDS011;11197;53.110;8.468;2022-08-19T02:33:42;11.65;;;10.20;;
22064;SDS011;11197;53.110;8.468;2022-08-19T02:36:11;11.75;;;10.25;;
22064;SDS011;11197;53.110;8.468;2022-08-19T02:38:38;12.82;;;10.70;;
22064;SDS011;11197;53.110;8.468;2022-08-19T02:41:07;10.73;;;9.43;;
22064;SDS011;11197;53.110;8.468;2022-08-19T02:43:38;11.38;;;9.68;;
22064;SDS011;11197;53.110;8.468;2022-08-19T02:46:16;8.82;;;7.68;;
22064;SDS011;11197;53.110;8.468;2022-08-19T02:48:50;11.98;;;10.00;;
22064;SDS011;11197;53.110;8.468;2022-08-19T02:51:21;13.10;;;11.18;;
22064;SDS011;11197;53.110;8.468;2022-08-19T02:53:48;12.07;;;8.77;;
22064;SDS011;11197;53.110;8.468;2022-08-19T02:56:15;13.88;;;10.85;;
22064;SDS011;11197;53.110;8.468;2022-08-19T02:58:41;14.82;;;11.38;;
22064;SDS011;11197;53.110;8.468;2022-08-19T03:01:08;13.20;;;10.50;;
22064;SDS011;11197;53.110;8.468;2022-08-19T03:03:35;12.48;;;9.63;;
22064;SDS011;11197;53.110;8.468;2022-08-19T03:06:13;17.42;;;12.43;;
22064;SDS011;11197;53.110;8.468;2022-08-19T03:08:41;18.23;;;12.85;;
22064;SDS011;11197;53.110;8.468;2022-08-19T03:11:13;19.60;;;13.35;;
22064;SDS011;11197;53.110;8.468;2022-08-19T03:13:44;18.70;;;12.68;;
22064;SDS011;11197;53.110;8.468;2022-08-19T03:16:11;21.45;;;13.88;;
22064;SDS011;11197;53.110;8.468;2022-08-19T03:18:38;21.35;;;13.80;;
22064;SDS011;11197;53.110;8.468;2022-08-19T03:21:04;25.70;;;15.32;;
22064;SDS011;11197;53.110;8.468;2022-08-19T03:23:31;24.35;;;14.23;;
22064;SDS011;11197;53.110;8.468;2022-08-19T03:25:57;24.38;;;15.13;;
22064;SDS011;11197;53.110;8.468;2022-08-19T03:28:23;31.48;;;17.02;;
22064;SDS011;11197;53.110;8.468;2022-08-19T03:30:59;31.67;;;16.33;;
22064;SDS011;11197;53.110;8.468;2022-08-19T03:33:28;29.20;;;16.45;;
22064;SDS011;11197;53.110;8.468;2022-08-19T03:35:59;31.35;;;17.98;;
22064;SDS011;11197;53.110;8.468;2022-08-19T03:38:38;31.10;;;16.30;;
22064;SDS011;11197;53.110;8.468;2022-08-19T03:41:11;28.23;;;15.48;;
22064;SDS011;11197;53.110;8.468;2022-08-19T03:43:45;28.00;;;14.93;;
22064;SDS011;11197;53.110;8.468;2022-08-19T03:46:15;24.77;;;13.82;;
22064;SDS011;11197;53.110;8.468;2022-08-19T03:48:45;22.33;;;13.27;;
22064;SDS011;11197;53.110;8.468;2022-08-19T03:51:16;24.10;;;13.40;;
22064;SDS011;11197;53.110;8.468;2022-08-19T03:53:45;20.58;;;12.23;;
22064;SDS011;11197;53.110;8.468;2022-08-19T03:56:11;21.02;;;11.88;;
22064;SDS011;11197;53.110;8.468;2022-08-19T03:58:39;18.27;;;11.35;;
22064;SDS011;11197;53.110;8.468;2022-08-19T04:01:12;16.83;;;10.40;;
22064;SDS011;11197;53.110;8.468;2022-08-19T04:03:40;15.40;;;9.35;;
22064;SDS011;11197;53.110;8.468;2022-08-19T04:08:36;15.65;;;8.77;;
22064;SDS011;11197;53.110;8.468;2022-08-19T04:11:05;10.40;;;7.75;;
22064;SDS011;11197;53.110;8.468;2022-08-19T04:13:33;10.55;;;7.75;;
22064;SDS011;11197;53.110;8.468;2022-08-19T04:15:59;11.38;;;7.80;;
22064;SDS011;11197;53.110;8.468;2022-08-19T04:18:25;9.75;;;6.80;;
22064;SDS011;11197;53.110;8.468;2022-08-19T04:20:52;10.48;;;7.50;;
22064;SDS011;11197;53.110;8.468;2022-08-19T04:23:18;8.82;;;6.82;;
22064;SDS011;11197;53.110;8.468;2022-08-19T04:25:44;8.50;;;6.90;;
22064;SDS011;11197;53.110;8.468;2022-08-19T04:28:13;8.18;;;6.45;;
22064;SDS011;11197;53.110;8.468;2022-08-19T04:30:44;8.25;;;6.47;;
22064;SDS011;11197;53.110;8.468;2022-08-19T04:33:13;8.82;;;6.63;;
22064;SDS011;11197;53.110;8.468;2022-08-19T04:35:42;7.50;;;6.00;;
22064;SDS011;11197;53.110;8.468;2022-08-19T04:38:14;6.68;;;5.97;;
22064;SDS011;11197;53.110;8.468;2022-08-19T04:40:43;8.57;;;7.07;;
22064;SDS011;11197;53.110;8.468;2022-08-19T04:43:31;8.10;;;6.13;;
22064;SDS011;11197;53.110;8.468;2022-08-19T04:45:57;7.93;;;6.70;;
22064;SDS011;11197;53.110;8.468;2022-08-19T04:48:29;7.18;;;5.82;;
22064;SDS011;11197;53.110;8.468;2022-08-19T04:50:56;8.13;;;6.32;;
22064;SDS011;11197;53.110;8.468;2022-08-19T04:53:25;6.85;;;5.32;;
22064;SDS011;11197;53.110;8.468;2022-08-19T04:55:56;8.65;;;6.97;;
22064;SDS011;11197;53.110;8.468;2022-08-19T04:58:23;8.15;;;7.20;;
22064;SDS011;11197;53.110;8.468;2022-08-19T05:00:50;8.52;;;6.57;;
22064;SDS011;11197;53.110;8.468;2022-08-19T05:03:16;10.75;;;7.53;;
22064;SDS011;11197;53.110;8.468;2022-08-19T05:05:44;9.35;;;5.97;;
22064;SDS011;11197;53.110;8.468;2022-08-19T05:08:13;8.60;;;7.60;;
22064;SDS011;11197;53.110;8.468;2022-08-19T05:10:51;7.78;;;5.88;;
22064;SDS011;11197;53.110;8.468;2022-08-19T05:13:19;6.85;;;4.82;;
22064;SDS011;11197;53.110;8.468;2022-08-19T05:15:55;8.95;;;7.50;;
22064;SDS011;11197;53.110;8.468;2022-08-19T05:18:22;7.88;;;5.95;;
22064;SDS011;11197;53.110;8.468;2022-08-19T05:21:09;6.95;;;5.78;;
22064;SDS011;11197;53.110;8.468;2022-08-19T05:23:55;7.13;;;6.00;;
22064;SDS011;11197;53.110;8.468;2022-08-19T05:26:21;7.22;;;5.80;;
22064;SDS011;11197;53.110;8.468;2022-08-19T05:28:47;7.82;;;6.35;;
22064;SDS011;11197;53.110;8.468;2022-08-19T05:31:13;7.30;;;6.10;;
22064;SDS011;11197;53.110;8.468;2022-08-19T05:33:39;7.20;;;6.05;;
22064;SDS011;11197;53.110;8.468;2022-08-19T05:36:05;6.97;;;5.60;;
22064;SDS011;11197;53.110;8.468;2022-08-19T05:38:33;6.60;;;5.53;;
22064;SDS011;11197;53.110;8.468;2022-08-19T05:41:11;6.68;;;4.55;;
22064;SDS011;11197;53.110;8.468;2022-08-19T05:43:38;6.95;;;6.07;;
22064;SDS011;11197;53.110;8.468;2022-08-19T05:46:05;9.38;;;6.05;;
22064;SDS011;11197;53.110;8.468;2022-08-19T05:48:32;6.30;;;5.50;;
22064;SDS011;11197;53.110;8.468;2022-08-19T05:51:03;4.80;;;3.22;;
22064;SDS011;11197;53.110;8.468;2022-08-19T05:53:32;6.30;;;4.63;;
22064;SDS011;11197;53.110;8.468;2022-08-19T05:56:03;5.43;;;4.25;;
22064;SDS011;11197;53.110;8.468;2022-08-19T05:58:35;6.05;;;4.60;;
22064;SDS011;11197;53.110;8.468;2022-08-19T06:01:02;6.55;;;5.75;;
22064;SDS011;11197;53.110;8.468;2022-08-19T06:03:34;7.20;;;5.28;;
22064;SDS011;11197;53.110;8.468;2022-08-19T06:06:03;7.47;;;5.57;;
22064;SDS011;11197;53.110;8.468;2022-08-19T06:08:30;6.30;;;4.30;;
22064;SDS011;11197;53.110;8.468;2022-08-19T06:10:58;9.18;;;6.03;;
22064;SDS011;11197;53.110;8.468;2022-08-19T06:13:36;10.20;;;6.40;;
22064;SDS011;11197;53.110;8.468;2022-08-19T06:16:03;8.13;;;6.00;;
22064;SDS011;11197;53.110;8.468;2022-08-19T06:18:29;10.55;;;7.10;;
22064;SDS011;11197;53.110;8.468;2022-08-19T06:20:55;9.85;;;6.82;;
22064;SDS011;11197;53.110;8.468;2022-08-19T06:23:21;8.80;;;6.68;;
22064;SDS011;11197;53.110;8.468;2022-08-19T06:25:47;8.93;;;6.65;;
22064;SDS011;11197;53.110;8.468;2022-08-19T06:28:13;8.55;;;6.65;;
22064;SDS011;11197;53.110;8.468;2022-08-19T06:30:39;10.20;;;6.90;;
22064;SDS011;11197;53.110;8.468;2022-08-19T06:33:06;10.00;;;7.25;;
22064;SDS011;11197;53.110;8.468;2022-08-19T06:35:32;8.38;;;6.78;;
22064;SDS011;11197;53.110;8.468;2022-08-19T06:37:58;8.50;;;7.00;;
22064;SDS011;11197;53.110;8.468;2022-08-19T06:40:24;11.77;;;7.68;;
22064;SDS011;11197;53.110;8.468;2022-08-19T06:42:52;10.35;;;7.05;;
22064;SDS011;11197;53.110;8.468;2022-08-19T06:45:18;11.30;;;6.57;;
22064;SDS011;11197;53.110;8.468;2022-08-19T06:47:45;11.18;;;6.85;;
22064;SDS011;11197;53.110;8.468;2022-08-19T06:50:13;8.27;;;6.75;;
22064;SDS011;11197;53.110;8.468;2022-08-19T06:52:39;7.57;;;5.93;;
22064;SDS011;11197;53.110;8.468;2022-08-19T06:55:05;9.20;;;6.45;;
22064;SDS011;11197;53.110;8.468;2022-08-19T06:57:32;8.20;;;6.53;;
22064;SDS011;11197;53.110;8.468;2022-08-19T06:59:58;10.00;;;6.60;;
22064;SDS011;11197;53.110;8.468;2022-08-19T07:02:25;11.38;;;7.50;;
22064;SDS011;11197;53.110;8.468;2022-08-19T07:04:51;9.73;;;6.80;;
22064;SDS011;11197;53.110;8.468;2022-08-19T07:07:19;10.27;;;7.65;;
22064;SDS011;11197;53.110;8.468;2022-08-19T07:09:45;8.70;;;6.72;;
22064;SDS011;11197;53.110;8.468;2022-08-19T07:12:12;8.98;;;6.82;;
22064;SDS011;11197;53.110;8.468;2022-08-19T07:14:42;10.88;;;7.68;;
22064;SDS011;11197;53.110;8.468;2022-08-19T07:17:11;10.50;;;7.38;;
22064;SDS011;11197;53.110;8.468;2022-08-19T07:19:38;9.68;;;7.30;;
22064;SDS011;11197;53.110;8.468;2022-08-19T07:22:06;11.82;;;7.32;;
22064;SDS011;11197;53.110;8.468;2022-08-19T07:24:35;9.52;;;8.02;;
22064;SDS011;11197;53.110;8.468;2022-08-19T07:27:03;10.30;;;7.10;;
22064;SDS011;11197;53.110;8.468;2022-08-19T07:29:31;8.30;;;6.00;;
22064;SDS011;11197;53.110;8.468;2022-08-19T07:31:58;9.32;;;6.35;;
22064;SDS011;11197;53.110;8.468;2022-08-19T07:34:26;8.32;;;6.50;;
22064;SDS011;11197;53.110;8.468;2022-08-19T07:36:54;8.77;;;5.97;;
22064;SDS011;11197;53.110;8.468;2022-08-19T07:39:28;6.40;;;5.65;;
22064;SDS011;11197;53.110;8.468;2022-08-19T07:41:57;7.05;;;5.40;;
22064;SDS011;11197;53.110;8.468;2022-08-19T07:44:25;7.70;;;5.25;;
22064;SDS011;11197;53.110;8.468;2022-08-19T07:46:53;8.10;;;5.30;;
22064;SDS011;11197;53.110;8.468;2022-08-19T07:49:21;7.07;;;4.43;;
22064;SDS011;11197;53.110;8.468;2022-08-19T07:51:55;6.00;;;4.38;;
22064;SDS011;11197;53.110;8.468;2022-08-19T07:56:58;5.95;;;4.20;;
22064;SDS011;11197;53.110;8.468;2022-08-19T07:59:25;5.68;;;4.05;;
22064;SDS011;11197;53.110;8.468;2022-08-19T08:01:51;7.63;;;4.45;;
22064;SDS011;11197;53.110;8.468;2022-08-19T08:04:19;5.65;;;3.75;;
22064;SDS011;11197;53.110;8.468;2022-08-19T08:07:04;6.13;;;4.18;;
22064;SDS011;11197;53.110;8.468;2022-08-19T08:09:50;6.10;;;3.67;;
22064;SDS011;11197;53.110;8.468;2022-08-19T08:12:22;5.60;;;3.92;;
22064;SDS011;11197;53.110;8.468;2022-08-19T08:14:54;5.80;;;3.55;;
22064;SDS011;11197;53.110;8.468;2022-08-19T08:17:23;4.10;;;3.30;;
22064;SDS011;11197;53.110;8.468;2022-08-19T08:19:52;5.25;;;3.45;;
22064;SDS011;11197;53.110;8.468;2022-08-19T08:22:19;5.85;;;3.20;;
22064;SDS011;11197;53.110;8.468;2022-08-19T08:25:09;5.05;;;2.65;;
22064;SDS011;11197;53.110;8.468;2022-08-19T08:27:38;4.70;;;3.10;;
22064;SDS011;11197;53.110;8.468;2022-08-19T08:30:11;5.40;;;2.63;;
22064;SDS011;11197;53.110;8.468;2022-08-19T08:32:41;6.03;;;3.67;;
22064;SDS011;11197;53.110;8.468;2022-08-19T08:35:10;6.00;;;3.75;;
22064;SDS011;11197;53.110;8.468;2022-08-19T08:37:41;5.95;;;3.85;;
22064;SDS011;11197;53.110;8.468;2022-08-19T08:40:34;6.03;;;3.60;;
22064;SDS011;11197;53.110;8.468;2022-08-19T08:43:06;5.47;;;3.95;;
22064;SDS011;11197;53.110;8.468;2022-08-19T08:45:33;5.05;;;3.55;;
22064;SDS011;11197;53.110;8.468;2022-08-19T08:48:07;5.63;;;2.63;;
22064;SDS011;11197;53.110;8.468;2022-08-19T08:50:45;4.95;;;3.00;;
22064;SDS011;11197;53.110;8.468;2022-08-19T08:53:13;5.68;;;2.85;;
22064;SDS011;11197;53.110;8.468;2022-08-19T08:55:42;5.20;;;3.10;;
22064;SDS011;11197;53.110;8.468;2022-08-19T08:58:16;5.93;;;2.70;;
22064;SDS011;11197;53.110;8.468;2022-08-19T09:00:49;5.80;;;2.60;;
22064;SDS011;11197;53.110;8.468;2022-08-19T09:05:50;5.38;;;2.83;;
22064;SDS011;11197;53.110;8.468;2022-08-19T09:10:58;4.68;;;2.38;;
22064;SDS011;11197;53.110;8.468;2022-08-19T09:13:29;4.55;;;2.45;;
22064;SDS011;11197;53.110;8.468;2022-08-19T09:16:12;4.70;;;2.63;;
22064;SDS011;11197;53.110;8.468;2022-08-19T09:18:49;3.25;;;2.35;;
22064;SDS011;11197;53.110;8.468;2022-08-19T09:21:20;3.50;;;2.00;;
22064;SDS011;11197;53.110;8.468;2022-08-19T09:23:49;5.03;;;2.38;;
22064;SDS011;11197;53.110;8.468;2022-08-19T09:26:16;4.85;;;2.47;;
22064;SDS011;11197;53.110;8.468;2022-08-19T09:28:47;4.55;;;2.05;;
22064;SDS011;11197;53.110;8.468;2022-08-19T09:31:22;3.75;;;1.90;;
22064;SDS011;11197;53.110;8.468;2022-08-19T09:33:51;3.35;;;2.30;;
22064;SDS011;11197;53.110;8.468;2022-08-19T09:36:26;2.92;;;2.20;;
22064;SDS011;11197;53.110;8.468;2022-08-19T09:38:56;4.60;;;2.10;;
22064;SDS011;11197;53.110;8.468;2022-08-19T09:41:23;3.45;;;1.90;;
22064;SDS011;11197;53.110;8.468;2022-08-19T09:43:51;4.75;;;1.90;;
22064;SDS011;11197;53.110;8.468;2022-08-19T09:46:19;2.50;;;1.63;;
22064;SDS011;11197;53.110;8.468;2022-08-19T09:48:49;2.80;;;1.52;;
22064;SDS011;11197;53.110;8.468;2022-08-19T09:51:17;3.17;;;1.60;;
22064;SDS011;11197;53.110;8.468;2022-08-19T09:53:47;3.97;;;1.45;;
22064;SDS011;11197;53.110;8.468;2022-08-19T09:56:16;4.68;;;1.70;;
22064;SDS011;11197;53.110;8.468;2022-08-19T09:58:43;2.78;;;1.70;;
22064;SDS011;11197;53.110;8.468;2022-08-19T10:01:14;2.58;;;1.70;;
22064;SDS011;11197;53.110;8.468;2022-08-19T10:03:42;2.92;;;1.70;;
22064;SDS011;11197;53.110;8.468;2022-08-19T10:06:08;3.75;;;1.95;;
22064;SDS011;11197;53.110;8.468;2022-08-19T10:08:36;3.42;;;2.00;;
22064;SDS011;11197;53.110;8.468;2022-08-19T10:11:05;5.93;;;2.15;;
22064;SDS011;11197;53.110;8.468;2022-08-19T10:13:32;6.07;;;1.75;;
22064;SDS011;11197;53.110;8.468;2022-08-19T10:16:06;5.15;;;1.80;;
22064;SDS011;11197;53.110;8.468;2022-08-19T10:18:34;2.70;;;1.40;;
22064;SDS011;11197;53.110;8.468;2022-08-19T10:21:09;2.35;;;1.30;;
22064;SDS011;11197;53.110;8.468;2022-08-19T10:23:40;3.65;;;1.60;;
22064;SDS011;11197;53.110;8.468;2022-08-19T10:26:16;5.22;;;1.80;;
22064;SDS011;11197;53.110;8.468;2022-08-19T10:28:48;2.55;;;1.50;;
22064;SDS011;11197;53.110;8.468;2022-08-19T10:31:16;4.32;;;1.77;;
22064;SDS011;11197;53.110;8.468;2022-08-19T10:33:45;2.83;;;1.90;;
22064;SDS011;11197;53.110;8.468;2022-08-19T10:36:20;3.45;;;2.00;;
22064;SDS011;11197;53.110;8.468;2022-08-19T10:38:48;3.28;;;2.10;;
22064;SDS011;11197;53.110;8.468;2022-08-19T10:41:17;2.97;;;1.70;;
22064;SDS011;11197;53.110;8.468;2022-08-19T10:43:45;3.70;;;1.40;;
22064;SDS011;11197;53.110;8.468;2022-08-19T10:46:12;3.08;;;1.38;;
22064;SDS011;11197;53.110;8.468;2022-08-19T10:48:40;4.03;;;1.20;;
22064;SDS011;11197;53.110;8.468;2022-08-19T10:51:07;2.60;;;1.40;;
22064;SDS011;11197;53.110;8.468;2022-08-19T10:53:53;2.60;;;1.70;;
22064;SDS011;11197;53.110;8.468;2022-08-19T10:56:19;3.97;;;1.60;;
22064;SDS011;11197;53.110;8.468;2022-08-19T10:59:04;2.13;;;1.23;;
22064;SDS011;11197;53.110;8.468;2022-08-19T11:01:30;2.13;;;1.10;;
22064;SDS011;11197;53.110;8.468;2022-08-19T11:03:59;1.60;;;0.90;;
22064;SDS011;11197;53.110;8.468;2022-08-19T11:06:26;3.35;;;0.80;;
22064;SDS011;11197;53.110;8.468;2022-08-19T11:08:53;2.15;;;0.60;;
22064;SDS011;11197;53.110;8.468;2022-08-19T11:11:20;1.70;;;0.60;;
22064;SDS011;11197;53.110;8.468;2022-08-19T11:13:46;1.83;;;0.77;;
22064;SDS011;11197;53.110;8.468;2022-08-19T11:16:19;1.35;;;0.80;;
22064;SDS011;11197;53.110;8.468;2022-08-19T11:18:49;2.15;;;0.90;;
22064;SDS011;11197;53.110;8.468;2022-08-19T11:21:18;1.98;;;0.90;;
22064;SDS011;11197;53.110;8.468;2022-08-19T11:23:46;1.40;;;0.77;;
22064;SDS011;11197;53.110;8.468;2022-08-19T11:26:14;1.90;;;0.80;;
22064;SDS011;11197;53.110;8.468;2022-08-19T11:28:42;1.80;;;0.80;;
22064;SDS011;11197;53.110;8.468;2022-08-19T11:31:09;1.67;;;0.90;;
22064;SDS011;11197;53.110;8.468;2022-08-19T11:33:37;4.78;;;0.80;;
22064;SDS011;11197;53.110;8.468;2022-08-19T11:36:03;1.80;;;0.80;;
22064;SDS011;11197;53.110;8.468;2022-08-19T11:38:29;2.53;;;1.00;;
22064;SDS011;11197;53.110;8.468;2022-08-19T11:40:59;1.80;;;1.00;;
22064;SDS011;11197;53.110;8.468;2022-08-19T11:43:27;2.05;;;1.00;;
22064;SDS011;11197;53.110;8.468;2022-08-19T11:45:54;3.28;;;1.02;;
22064;SDS011;11197;53.110;8.468;2022-08-19T11:48:21;1.98;;;1.25;;
22064;SDS011;11197;53.110;8.468;2022-08-19T11:50:48;2.05;;;1.08;;
22064;SDS011;11197;53.110;8.468;2022-08-19T11:53:15;3.45;;;1.30;;
22064;SDS011;11197;53.110;8.468;2022-08-19T11:55:43;3.20;;;1.10;;
22064;SDS011;11197;53.110;8.468;2022-08-19T11:58:10;1.98;;;0.90;;
22064;SDS011;11197;53.110;8.468;2022-08-19T12:00:37;1.30;;;0.70;;
22064;SDS011;11197;53.110;8.468;2022-08-19T12:03:04;2.28;;;0.93;;
22064;SDS011;11197;53.110;8.468;2022-08-19T12:05:30;3.47;;;0.98;;
22064;SDS011;11197;53.110;8.468;2022-08-19T12:07:56;1.55;;;0.80;;
22064;SDS011;11197;53.110;8.468;2022-08-19T12:10:22;2.90;;;1.00;;
22064;SDS011;11197;53.110;8.468;2022-08-19T12:12:48;3.13;;;1.10;;
22064;SDS011;11197;53.110;8.468;2022-08-19T12:15:15;1.73;;;1.10;;
22064;SDS011;11197;53.110;8.468;2022-08-19T12:17:41;1.95;;;1.17;;
22064;SDS011;11197;53.110;8.468;2022-08-19T12:20:09;2.13;;;1.00;;
22064;SDS011;11197;53.110;8.468;2022-08-19T12:22:36;1.92;;;0.93;;
22064;SDS011;11197;53.110;8.468;2022-08-19T12:25:04;2.17;;;1.10;;
22064;SDS011;11197;53.110;8.468;2022-08-19T12:27:30;2.90;;;1.10;;
22064;SDS011;11197;53.110;8.468;2022-08-19T12:29:56;4.05;;;0.88;;
22064;SDS011;11197;53.110;8.468;2022-08-19T12:32:23;2.20;;;0.93;;
22064;SDS011;11197;53.110;8.468;2022-08-19T12:34:50;1.38;;;0.90;;
22064;SDS011;11197;53.110;8.468;2022-08-19T12:37:16;1.73;;;1.00;;
22064;SDS011;11197;53.110;8.468;2022-08-19T12:39:42;1.73;;;1.00;;
22064;SDS011;11197;53.110;8.468;2022-08-19T12:42:09;3.47;;;1.00;;
22064;SDS011;11197;53.110;8.468;2022-08-19T12:44:38;1.45;;;0.80;;
22064;SDS011;11197;53.110;8.468;2022-08-19T12:47:06;1.05;;;0.80;;
22064;SDS011;11197;53.110;8.468;2022-08-19T12:49:33;2.17;;;0.90;;
22064;SDS011;11197;53.110;8.468;2022-08-19T12:52:00;2.17;;;1.02;;
22064;SDS011;11197;53.110;8.468;2022-08-19T12:54:26;2.47;;;0.90;;
22064;SDS011;11197;53.110;8.468;2022-08-19T12:56:52;2.30;;;1.00;;
22064;SDS011;11197;53.110;8.468;2022-08-19T12:59:19;2.10;;;1.00;;
22064;SDS011;11197;53.110;8.468;2022-08-19T13:01:45;1.85;;;1.10;;
22064;SDS011;11197;53.110;8.468;2022-08-19T13:04:11;2.17;;;1.13;;
22064;SDS011;11197;53.110;8.468;2022-08-19T13:06:37;2.35;;;1.00;;
22064;SDS011;11197;53.110;8.468;2022-08-19T13:09:04;2.50;;;0.95;;
22064;SDS011;11197;53.110;8.468;2022-08-19T13:11:30;2.42;;;0.80;;
22064;SDS011;11197;53.110;8.468;2022-08-19T13:13:59;1.27;;;1.00;;
22064;SDS011;11197;53.110;8.468;2022-08-19T13:16:26;2.35;;;1.10;;
22064;SDS011;11197;53.110;8.468;2022-08-19T13:18:53;1.58;;;0.90;;
22064;SDS011;11197;53.110;8.468;2022-08-19T13:21:22;4.15;;;1.25;;
22064;SDS011;11197;53.110;8.468;2022-08-19T13:26:17;2.03;;;1.00;;
22064;SDS011;11197;53.110;8.468;2022-08-19T13:28:44;2.70;;;1.30;;
22064;SDS011;11197;53.110;8.468;2022-08-19T13:31:31;2.25;;;1.40;;
22064;SDS011;11197;53.110;8.468;2022-08-19T13:34:32;2.63;;;1.30;;
22064;SDS011;11197;53.110;8.468;2022-08-19T13:37:00;2.67;;;1.25;;
22064;SDS011;11197;53.110;8.468;2022-08-19T13:39:28;4.03;;;1.50;;
22064;SDS011;11197;53.110;8.468;2022-08-19T13:41:55;3.65;;;1.75;;
22064;SDS011;11197;53.110;8.468;2022-08-19T13:44:21;2.58;;;1.23;;
22064;SDS011;11197;53.110;8.468;2022-08-19T13:46:47;4.38;;;1.40;;
22064;SDS011;11197;53.110;8.468;2022-08-19T13:49:16;2.75;;;1.20;;
22064;SDS011;11197;53.110;8.468;2022-08-19T13:51:43;1.92;;;1.20;;
22064;SDS011;11197;53.110;8.468;2022-08-19T13:54:09;3.15;;;1.27;;
22064;SDS011;11197;53.110;8.468;2022-08-19T13:56:43;2.92;;;1.27;;
22064;SDS011;11197;53.110;8.468;2022-08-19T13:59:11;1.67;;;1.10;;
22064;SDS011;11197;53.110;8.468;2022-08-19T14:01:37;2.20;;;1.13;;
22064;SDS011;11197;53.110;8.468;2022-08-19T14:04:04;2.30;;;1.10;;
22064;SDS011;11197;53.110;8.468;2022-08-19T14:06:31;2.60;;;1.20;;
22064;SDS011;11197;53.110;8.468;2022-08-19T14:08:57;1.77;;;1.08;;
22064;SDS011;11197;53.110;8.468;2022-08-19T14:11:24;1.50;;;1.10;;
22064;SDS011;11197;53.110;8.468;2022-08-19T14:13:50;2.35;;;1.00;;
22064;SDS011;11197;53.110;8.468;2022-08-19T14:16:16;3.15;;;0.95;;
22064;SDS011;11197;53.110;8.468;2022-08-19T14:18:42;3.25;;;1.20;;
22064;SDS011;11197;53.110;8.468;2022-08-19T14:21:14;4.43;;;1.10;;
22064;SDS011;11197;53.110;8.468;2022-08-19T14:23:42;2.70;;;1.13;;
22064;SDS011;11197;53.110;8.468;2022-08-19T14:26:11;4.03;;;1.10;;
22064;SDS011;11197;53.110;8.468;2022-08-19T14:28:39;1.80;;;0.82;;
22064;SDS011;11197;53.110;8.468;2022-08-19T14:31:09;1.80;;;0.90;;
22064;SDS011;11197;53.110;8.468;2022-08-19T14:33:41;2.67;;;1.00;;
22064;SDS011;11197;53.110;8.468;2022-08-19T14:36:08;1.70;;;0.90;;
22064;SDS011;11197;53.110;8.468;2022-08-19T14:38:34;2.22;;;1.05;;
22064;SDS011;11197;53.110;8.468;2022-08-19T14:46:10;2.22;;;1.00;;
22064;SDS011;11197;53.110;8.468;2022-08-19T14:48:37;1.67;;;1.10;;
22064;SDS011;11197;53.110;8.468;2022-08-19T14:51:04;2.88;;;1.13;;
22064;SDS011;11197;53.110;8.468;2022-08-19T14:53:31;2.75;;;1.30;;
22064;SDS011;11197;53.110;8.468;2022-08-19T14:55:59;3.50;;;1.30;;
22064;SDS011;11197;53.110;8.468;2022-08-19T14:58:26;3.75;;;1.20;;
22064;SDS011;11197;53.110;8.468;2022-08-19T15:00:53;1.63;;;1.00;;
22064;SDS011;11197;53.110;8.468;2022-08-19T15:03:20;1.60;;;1.10;;
22064;SDS011;11197;53.110;8.468;2022-08-19T15:05:47;2.92;;;1.15;;
22064;SDS011;11197;53.110;8.468;2022-08-19T15:08:14;1.67;;;1.10;;
22064;SDS011;11197;53.110;8.468;2022-08-19T15:10:40;2.55;;;1.30;;
22064;SDS011;11197;53.110;8.468;2022-08-19T15:13:06;3.15;;;1.10;;